Time;durP1;ratioP1;P1;durP2;ratioP2;P2;SDS_P1;SDS_P2;PMS_P1;PMS_P2;Temp;Humidity;BMP_temperature;BMP_pressure;BME280_temperature;BME280_humidity;BME280_pressure;Samples;Min_cycle;Max_cycle;Signal;HPM_P1;HPM_P2
2023/11/06 00:00:52;;;;;;;9.20;2.40;;;;;;;21.96;52.59;100030.06;107115;1264;25346;-50
2023/11/06 00:03:19;;;;;;;6.30;1.40;;;;;;;21.96;52.45;100027.71;107130;1254;25409;-50
2023/11/06 00:05:46;;;;;;;5.10;1.20;;;;;;;21.96;52.87;100035.54;107085;1263;25331;-50
2023/11/06 00:08:14;;;;;;;3.30;1.40;;;;;;;21.93;52.98;100038.02;107066;1263;25369;-50
2023/11/06 00:10:42;;;;;;;8.10;1.60;;;;;;;21.89;52.91;100028.30;107044;1263;25331;-50
2023/11/06 00:13:10;;;;;;;5.50;1.10;;;;;;;21.86;52.87;100013.56;107022;1256;25405;-50
2023/11/06 00:15:37;;;;;;;3.40;1.10;;;;;;;21.71;53.09;100004.84;106871;1271;25359;-50
2023/11/06 00:18:05;;;;;;;7.70;1.80;;;;;;;21.67;52.78;100006.21;106793;1259;25331;-50
2023/11/06 00:20:32;;;;;;;11.70;2.60;;;;;;;21.66;52.60;100001.88;106155;1266;1002376;-50
2023/11/06 00:22:59;;;;;;;8.50;2.10;;;;;;;21.52;52.78;99992.39;107049;1257;25331;-50
2023/11/06 00:25:26;;;;;;;9.20;3.30;;;;;;;21.56;52.82;99966.13;107100;1257;25318;-50
2023/11/06 00:27:55;;;;;;;10.50;2.80;;;;;;;21.63;52.28;99944.27;106889;1256;25405;-50
2023/11/06 00:30:22;;;;;;;9.40;2.40;;;;;;;21.63;51.99;99917.36;107095;1256;25393;-50
2023/11/06 00:32:52;;;;;;;6.20;1.40;;;;;;;21.56;52.19;99911.09;107076;1256;25356;-50
2023/11/06 00:35:19;;;;;;;5.30;1.50;;;;;;;21.61;52.20;99910.64;107138;1257;25558;-50
2023/11/06 00:37:47;;;;;;;6.70;2.20;;;;;;;21.71;51.32;99924.70;107095;1256;25331;-50
2023/11/06 00:40:14;;;;;;;7.00;1.90;;;;;;;21.70;51.04;99935.94;107121;1255;25423;-51
2023/11/06 00:42:41;;;;;;;6.50;2.00;;;;;;;21.60;51.74;99948.73;107150;1266;25382;-50
2023/11/06 00:45:08;;;;;;;8.50;2.00;;;;;;;21.77;51.99;99966.60;106788;1274;25340;-49
2023/11/06 00:47:35;;;;;;;8.20;2.40;;;;;;;21.81;52.21;99964.48;106888;1266;25449;-49
2023/11/06 00:50:03;;;;;;;9.40;2.20;;;;;;;21.82;52.28;99963.35;106786;1262;25407;-50
2023/11/06 00:52:30;;;;;;;9.70;2.20;;;;;;;21.84;52.29;99967.27;107107;1256;24628;-50
2023/11/06 00:54:57;;;;;;;5.40;1.60;;;;;;;21.84;51.94;99975.05;107263;1264;22647;-50
2023/11/06 00:57:24;;;;;;;10.00;2.40;;;;;;;21.84;51.65;99975.59;107070;1256;25477;-50
2023/11/06 00:59:51;;;;;;;5.30;1.50;;;;;;;21.82;51.66;99979.77;107196;1254;24207;-50
2023/11/06 01:02:18;;;;;;;6.50;2.30;;;;;;;21.82;51.82;99981.04;107070;1257;25381;-52
2023/11/06 01:04:45;;;;;;;9.50;1.80;;;;;;;21.82;51.95;99980.99;105564;1257;1003578;-50
2023/11/06 01:07:13;;;;;;;8.10;1.60;;;;;;;21.84;51.50;99985.42;106940;1251;25411;-50
2023/11/06 01:09:40;;;;;;;5.20;1.50;;;;;;;21.83;51.09;99997.02;106745;1260;25381;-50
2023/11/06 01:12:07;;;;;;;8.40;1.70;;;;;;;21.75;51.03;100002.62;106786;1257;23220;-51
2023/11/06 01:14:34;;;;;;;6.80;1.30;;;;;;;21.83;50.80;100002.13;106477;1270;25448;-49
2023/11/06 01:17:01;;;;;;;9.60;2.20;;;;;;;21.86;50.43;100001.16;106645;1259;25362;-49
2023/11/06 01:19:29;;;;;;;8.80;2.40;;;;;;;21.90;50.39;99998.79;106647;1259;25331;-49
2023/11/06 01:21:56;;;;;;;14.80;3.60;;;;;;;21.99;50.50;99998.23;106977;1264;23893;-50
2023/11/06 01:24:23;;;;;;;6.20;1.60;;;;;;;21.97;50.67;100000.07;106802;1256;22520;-50
2023/11/06 01:26:50;;;;;;;5.60;1.60;;;;;;;21.88;50.94;100000.69;106820;1266;25325;-52
2023/11/06 01:29:17;;;;;;;7.90;1.60;;;;;;;21.85;50.91;100003.19;106945;1254;25405;-51
2023/11/06 01:31:44;;;;;;;3.70;1.50;;;;;;;21.85;50.97;100004.45;107085;1260;25363;-51
2023/11/06 01:34:12;;;;;;;6.50;1.70;;;;;;;21.85;51.18;100012.02;107182;1254;25355;-49
2023/11/06 01:36:45;;;;;;;8.10;1.50;;;;;;;21.85;51.50;100012.20;107234;1254;24203;-51
2023/11/06 01:39:13;;;;;;;4.50;1.60;;;;;;;21.84;51.45;100011.20;107052;1257;25381;-51
2023/11/06 01:41:40;;;;;;;5.10;1.80;;;;;;;21.83;51.36;100014.98;107014;1256;25411;-51
2023/11/06 01:44:07;;;;;;;4.80;1.60;;;;;;;21.82;51.27;100022.67;107068;1257;25405;-52
2023/11/06 01:46:34;;;;;;;5.00;2.10;;;;;;;21.83;51.26;100029.00;107008;1254;27220;-52
2023/11/06 01:49:02;;;;;;;8.10;1.50;;;;;;;21.83;51.16;100029.98;106988;1256;25473;-51
2023/11/06 01:51:29;;;;;;;5.90;1.70;;;;;;;21.81;51.03;100028.27;106835;1256;22810;-51
2023/11/06 01:53:57;;;;;;;3.20;1.50;;;;;;;21.80;50.71;100029.71;106936;1256;25331;-51
2023/11/06 01:56:24;;;;;;;3.20;1.00;;;;;;;21.81;50.43;100032.27;107064;1266;25401;-50
2023/11/06 01:58:51;;;;;;;3.20;1.40;;;;;;;21.80;50.26;100037.11;106806;1259;25380;-51
2023/11/06 02:01:19;;;;;;;5.90;1.60;;;;;;;21.80;50.23;100044.41;107104;1257;25318;-52
2023/11/06 02:03:47;;;;;;;10.90;1.50;;;;;;;21.77;50.37;100050.60;107120;1267;24266;-51
2023/11/06 02:06:14;;;;;;;7.80;2.30;;;;;;;21.73;50.51;100048.95;107140;1257;25483;-51
2023/11/06 02:08:41;;;;;;;5.30;2.00;;;;;;;21.64;50.71;100046.21;107022;1257;25478;-50
2023/11/06 02:11:08;;;;;;;10.10;2.80;;;;;;;21.72;50.30;100043.95;107065;1256;25516;-50
2023/11/06 02:13:35;;;;;;;9.90;2.60;;;;;;;21.73;50.43;100039.67;107139;1267;25481;-50
2023/11/06 02:16:03;;;;;;;9.80;1.90;;;;;;;21.72;50.70;100047.13;107108;1256;25332;-50
2023/11/06 02:18:30;;;;;;;5.90;1.80;;;;;;;21.67;51.06;100053.21;107140;1256;23406;-51
2023/11/06 02:20:57;;;;;;;4.60;1.80;;;;;;;21.43;51.78;100052.42;107003;1257;25359;-50
2023/11/06 02:23:27;;;;;;;5.10;1.80;;;;;;;21.39;51.63;100054.36;107125;1257;25443;-50
2023/11/06 02:25:54;;;;;;;7.20;1.60;;;;;;;21.37;51.35;100055.60;106861;1260;22521;-51
2023/11/06 02:28:21;;;;;;;4.90;1.60;;;;;;;21.36;51.23;100063.20;107133;1257;25424;-51
2023/11/06 02:30:52;;;;;;;4.30;1.30;;;;;;;21.35;51.04;100077.26;107019;1260;25360;-50
2023/11/06 02:33:19;;;;;;;4.00;1.60;;;;;;;21.34;51.06;100087.55;107156;1260;23409;-50
2023/11/06 02:35:47;;;;;;;4.70;1.40;;;;;;;21.34;50.90;100096.18;106795;1267;25328;-50
2023/11/06 02:38:14;;;;;;;7.00;2.30;;;;;;;21.33;50.71;100103.54;106878;1259;25691;-50
2023/11/06 02:40:42;;;;;;;4.30;1.10;;;;;;;21.30;50.56;100099.27;107142;1257;25356;-50
2023/11/06 02:43:09;;;;;;;5.80;1.10;;;;;;;21.27;50.20;100097.23;107244;1260;25504;-51
2023/11/06 02:45:36;;;;;;;2.60;1.10;;;;;;;21.23;49.91;100101.30;107127;1271;25331;-50
2023/11/06 02:48:03;;;;;;;3.80;1.00;;;;;;;21.19;49.69;100112.52;107089;1256;25472;-50
2023/11/06 02:50:31;;;;;;;3.70;0.90;;;;;;;21.14;49.48;100119.23;106729;1263;25359;-50
2023/11/06 02:52:59;;;;;;;1.90;0.80;;;;;;;21.08;49.26;100121.09;106841;1260;25481;-51
2023/11/06 02:55:26;;;;;;;1.20;0.60;;;;;;;21.03;49.30;100128.52;107156;1256;22534;-51
2023/11/06 02:57:53;;;;;;;2.10;1.00;;;;;;;20.97;49.25;100129.80;106890;1274;25321;-50
2023/11/06 03:00:20;;;;;;;2.80;0.90;;;;;;;20.93;49.27;100129.59;107056;1263;22521;-50
2023/11/06 03:02:47;;;;;;;2.60;0.90;;;;;;;20.90;49.29;100132.52;107073;1256;25346;-50
2023/11/06 03:05:16;;;;;;;2.80;1.00;;;;;;;20.86;49.32;100130.66;107067;1254;25331;-51
2023/11/06 03:07:44;;;;;;;3.20;1.00;;;;;;;20.83;49.41;100137.58;107164;1257;25408;-51
2023/11/06 03:10:11;;;;;;;2.80;1.00;;;;;;;20.79;49.49;100142.83;106847;1270;25387;-50
2023/11/06 03:12:38;;;;;;;2.10;1.10;;;;;;;20.73;49.42;100146.10;107035;1256;22530;-51
2023/11/06 03:15:06;;;;;;;4.00;1.00;;;;;;;20.67;49.40;100155.48;107052;1257;25331;-51
2023/11/06 03:17:33;;;;;;;3.90;1.20;;;;;;;20.63;49.55;100170.29;107050;1263;25495;-50
2023/11/06 03:20:00;;;;;;;2.10;1.00;;;;;;;20.58;49.62;100173.29;107098;1257;25340;-50
2023/11/06 03:22:27;;;;;;;1.00;0.70;;;;;;;20.52;49.67;100177.73;107064;1256;25340;-51
2023/11/06 03:24:54;;;;;;;2.20;1.10;;;;;;;20.48;49.77;100185.45;107091;1257;25411;-51
2023/11/06 03:27:21;;;;;;;2.80;0.90;;;;;;;20.44;49.83;100186.77;107048;1257;25337;-51
2023/11/06 03:29:48;;;;;;;1.40;0.90;;;;;;;20.42;49.80;100190.86;107160;1260;25468;-51
2023/11/06 03:32:15;;;;;;;2.60;0.90;;;;;;;20.38;49.88;100198.13;107140;1254;25477;-50
2023/11/06 03:34:43;;;;;;;3.60;2.30;;;;;;;20.35;49.93;100205.91;107144;1257;25526;-51
2023/11/06 03:37:10;;;;;;;8.00;4.60;;;;;;;20.34;50.02;100215.75;107129;1255;25398;-51
2023/11/06 03:39:37;;;;;;;4.10;2.70;;;;;;;20.31;50.01;100218.03;107100;1257;25312;-50
2023/11/06 03:42:04;;;;;;;5.10;3.20;;;;;;;20.28;49.92;100221.06;107077;1257;25434;-51
2023/11/06 03:44:31;;;;;;;3.10;2.70;;;;;;;20.27;49.89;100224.65;107130;1256;22742;-51
2023/11/06 03:46:59;;;;;;;2.60;2.00;;;;;;;20.31;49.69;100230.06;107172;1263;25389;-50
2023/11/06 03:49:27;;;;;;;2.00;1.50;;;;;;;20.27;49.54;100236.63;106864;1253;25353;-50
2023/11/06 03:51:54;;;;;;;2.30;1.20;;;;;;;20.21;49.57;100243.02;107100;1257;23309;-51
2023/11/06 03:54:20;;;;;;;0.90;0.70;;;;;;;20.16;49.69;100244.38;107018;1263;25356;-50
2023/11/06 03:56:48;;;;;;;5.40;1.30;;;;;;;20.11;49.82;100251.13;107087;1257;22530;-51
2023/11/06 03:59:15;;;;;;;3.30;1.30;;;;;;;20.06;49.94;100254.27;106934;1254;25446;-51
2023/11/06 04:01:42;;;;;;;3.80;1.00;;;;;;;20.03;49.86;100259.45;106786;1257;25356;-51
2023/11/06 04:04:09;;;;;;;3.00;1.10;;;;;;;19.99;49.73;100267.11;106884;1264;25504;-49
2023/11/06 04:06:37;;;;;;;1.50;0.90;;;;;;;19.95;49.69;100273.19;106688;1273;25433;-52
2023/11/06 04:09:04;;;;;;;2.20;1.00;;;;;;;19.92;49.81;100286.95;107004;1251;24257;-52
2023/11/06 04:11:31;;;;;;;2.60;1.10;;;;;;;19.89;49.93;100291.23;107020;1256;25337;-51
2023/11/06 04:13:58;;;;;;;1.50;0.80;;;;;;;19.86;50.04;100294.58;107033;1266;25322;-50
2023/11/06 04:16:25;;;;;;;3.10;1.00;;;;;;;19.83;49.95;100293.88;107172;1256;25356;-52
2023/11/06 04:18:55;;;;;;;5.20;1.10;;;;;;;19.79;49.93;100290.84;107159;1260;25359;-52
2023/11/06 04:21:22;;;;;;;1.10;1.00;;;;;;;19.76;49.92;100290.48;107171;1254;22524;-50
2023/11/06 04:23:49;;;;;;;1.70;1.00;;;;;;;19.73;49.91;100298.63;107110;1264;25484;-50
2023/11/06 04:26:16;;;;;;;2.20;1.10;;;;;;;19.69;49.89;100303.67;106949;1260;25337;-52
2023/11/06 04:28:43;;;;;;;2.10;1.00;;;;;;;19.65;49.91;100303.77;107087;1263;25369;-51
2023/11/06 04:31:10;;;;;;;2.40;0.90;;;;;;;19.62;49.89;100311.53;107028;1267;22583;-51
2023/11/06 04:33:37;;;;;;;1.10;1.00;;;;;;;19.58;49.92;100318.98;107117;1267;25324;-50
2023/11/06 04:36:05;;;;;;;3.30;1.20;;;;;;;19.54;49.88;100326.48;107103;1257;25322;-51
2023/11/06 04:38:32;;;;;;;1.80;0.90;;;;;;;19.49;50.11;100336.08;107161;1256;24234;-51
2023/11/06 04:40:59;;;;;;;1.70;0.80;;;;;;;19.43;50.23;100347.19;107089;1261;25331;-51
2023/11/06 04:43:28;;;;;;;1.50;1.20;;;;;;;19.38;50.20;100360.89;107078;1264;25349;-51
2023/11/06 04:45:54;;;;;;;1.50;1.20;;;;;;;19.33;50.32;100367.56;107130;1256;22532;-51
2023/11/06 04:48:21;;;;;;;1.40;1.10;;;;;;;19.26;50.27;100373.60;107147;1257;25356;-50
2023/11/06 04:50:48;;;;;;;1.80;1.30;;;;;;;19.19;50.39;100380.38;107131;1263;25481;-50
2023/11/06 04:53:15;;;;;;;2.10;1.00;;;;;;;19.15;50.53;100382.77;107008;1258;25356;-50
2023/11/06 04:55:43;;;;;;;1.20;1.00;;;;;;;19.13;50.52;100389.75;106897;1259;25356;-51
2023/11/06 04:58:10;;;;;;;2.90;1.10;;;;;;;19.11;50.44;100397.06;107191;1255;25332;-50
2023/11/06 05:00:37;;;;;;;3.10;1.10;;;;;;;19.09;50.49;100403.54;106532;1272;25347;-50
2023/11/06 05:03:03;;;;;;;2.50;1.10;;;;;;;19.05;50.53;100407.83;106839;1266;24354;-50
2023/11/06 05:05:31;;;;;;;2.10;1.00;;;;;;;19.08;50.39;100412.57;106683;1273;25440;-50
2023/11/06 05:07:58;;;;;;;1.50;1.10;;;;;;;19.08;50.58;100419.23;106757;1269;25404;-50
2023/11/06 05:10:25;;;;;;;2.50;1.40;;;;;;;19.07;50.58;100424.23;106797;1259;25360;-51
2023/11/06 05:12:52;;;;;;;0.90;0.90;;;;;;;19.06;50.38;100427.13;106884;1262;25319;-50
2023/11/06 05:15:19;;;;;;;2.20;1.30;;;;;;;19.04;50.44;100431.98;106792;1269;25504;-50
2023/11/06 05:17:46;;;;;;;5.10;0.90;;;;;;;19.02;50.36;100434.71;106837;1268;25353;-51
2023/11/06 05:20:14;;;;;;;1.20;0.80;;;;;;;19.01;50.35;100431.65;106782;1260;25369;-50
2023/11/06 05:22:41;;;;;;;2.40;1.00;;;;;;;19.00;50.20;100437.13;106828;1259;22766;-52
2023/11/06 05:25:08;;;;;;;1.70;0.90;;;;;;;18.98;50.04;100442.17;106798;1272;25485;-50
2023/11/06 05:27:35;;;;;;;0.90;0.80;;;;;;;18.97;50.13;100448.05;106756;1269;25341;-50
2023/11/06 05:30:04;;;;;;;2.80;0.90;;;;;;;18.95;50.13;100455.02;106648;1273;25334;-50
2023/11/06 05:32:32;;;;;;;1.60;0.90;;;;;;;18.94;50.28;100460.38;107087;1260;24199;-51
2023/11/06 05:35:00;;;;;;;2.10;0.90;;;;;;;18.94;50.17;100464.43;107139;1256;22565;-50
2023/11/06 05:37:27;;;;;;;1.30;0.90;;;;;;;18.93;50.15;100466.94;107085;1256;25478;-51
2023/11/06 05:39:54;;;;;;;1.50;1.00;;;;;;;18.93;50.04;100474.69;107060;1263;25341;-51
2023/11/06 05:42:21;;;;;;;4.30;1.50;;;;;;;18.92;50.08;100480.94;107228;1257;25324;-51
2023/11/06 05:44:48;;;;;;;2.70;1.00;;;;;;;18.84;50.20;100482.45;107091;1263;24180;-51
2023/11/06 05:47:15;;;;;;;1.90;0.80;;;;;;;18.88;50.12;100487.99;107049;1254;25349;-50
2023/11/06 05:49:42;;;;;;;1.50;0.90;;;;;;;18.90;50.07;100490.34;107173;1258;25337;-51
2023/11/06 05:52:10;;;;;;;1.50;0.90;;;;;;;18.92;50.25;100494.41;107052;1263;25331;-50
2023/11/06 05:54:37;;;;;;;2.00;1.00;;;;;;;19.01;50.39;100495.44;106991;1257;25353;-50
2023/11/06 05:57:04;;;;;;;2.40;1.00;;;;;;;19.15;50.08;100502.14;107038;1257;25458;-50
2023/11/06 05:59:31;;;;;;;2.00;0.90;;;;;;;19.27;49.64;100511.80;106728;1266;25309;-50
2023/11/06 06:01:58;;;;;;;2.90;0.90;;;;;;;19.34;49.37;100514.70;106340;1267;25408;-50
2023/11/06 06:04:26;;;;;;;1.70;0.90;;;;;;;19.39;49.17;100516.86;107077;1257;25313;-50
2023/11/06 06:06:54;;;;;;;1.70;0.90;;;;;;;19.42;48.86;100524.61;107176;1257;25392;-50
2023/11/06 06:09:21;;;;;;;1.10;0.90;;;;;;;19.43;48.67;100534.72;107113;1263;23687;-50
2023/11/06 06:11:48;;;;;;;1.00;0.80;;;;;;;19.42;48.52;100541.11;107045;1256;23979;-51
2023/11/06 06:14:15;;;;;;;1.90;0.80;;;;;;;19.41;48.39;100545.97;106786;1274;25398;-52
2023/11/06 06:16:42;;;;;;;2.10;1.00;;;;;;;19.36;48.43;100551.36;107143;1264;25350;-52
2023/11/06 06:19:09;;;;;;;2.00;0.80;;;;;;;19.30;48.50;100550.28;107003;1264;24185;-51
2023/11/06 06:21:36;;;;;;;5.40;1.10;;;;;;;19.17;48.93;100550.71;106931;1264;25340;-52
2023/11/06 06:24:03;;;;;;;3.10;0.90;;;;;;;19.18;49.12;100556.67;106910;1263;22534;-52
2023/11/06 06:26:30;;;;;;;1.50;1.10;;;;;;;19.23;49.27;100557.04;104179;1263;1005598;-50
2023/11/06 06:28:57;;;;;;;2.60;1.20;;;;;;;19.29;49.27;100556.69;107136;1257;24030;-52
2023/11/06 06:31:24;;;;;;;1.60;0.80;;;;;;;19.35;49.12;100556.89;107149;1264;24202;-52
2023/11/06 06:33:51;;;;;;;2.20;0.90;;;;;;;19.40;49.07;100560.42;107152;1264;25501;-51
2023/11/06 06:36:18;;;;;;;1.40;0.80;;;;;;;19.44;48.98;100560.55;106839;1260;25481;-51
2023/11/06 06:38:45;;;;;;;1.40;0.90;;;;;;;19.45;49.04;100561.15;106724;1260;24044;-50
2023/11/06 06:41:12;;;;;;;3.30;2.10;;;;;;;19.49;49.06;100563.40;106785;1267;25481;-50
2023/11/06 06:43:39;;;;;;;2.50;0.80;;;;;;;19.51;49.00;100563.11;107046;1265;25337;-51
2023/11/06 06:46:06;;;;;;;2.10;0.90;;;;;;;19.52;48.85;100569.55;106948;1260;25378;-51
2023/11/06 06:48:33;;;;;;;0.60;0.60;;;;;;;19.52;48.88;100574.83;106797;1270;25390;-50
2023/11/06 06:51:01;;;;;;;2.20;0.60;;;;;;;19.53;48.87;100576.74;106954;1256;25325;-50
2023/11/06 06:53:28;;;;;;;2.90;0.90;;;;;;;19.53;48.94;100581.45;106869;1264;24243;-50
2023/11/06 06:55:55;;;;;;;1.40;0.70;;;;;;;19.57;49.27;100581.20;106971;1264;25449;-50
2023/11/06 06:58:23;;;;;;;1.40;0.60;;;;;;;19.66;49.28;100569.97;107036;1258;25484;-51
2023/11/06 07:00:51;;;;;;;1.50;0.90;;;;;;;19.74;49.20;100566.03;107121;1264;25372;-50
2023/11/06 07:03:18;;;;;;;0.70;0.60;;;;;;;19.84;49.19;100568.23;107038;1264;25350;-50
2023/11/06 07:05:47;;;;;;;1.50;0.70;;;;;;;19.93;48.91;100567.15;107147;1267;23171;-50
2023/11/06 07:08:14;;;;;;;0.60;0.50;;;;;;;20.01;48.64;100568.77;107137;1261;24213;-50
2023/11/06 07:10:41;;;;;;;1.10;0.60;;;;;;;20.07;48.56;100574.16;107119;1260;25466;-50
2023/11/06 07:13:08;;;;;;;1.40;0.40;;;;;;;20.12;48.48;100581.38;107147;1257;25353;-50
2023/11/06 07:15:35;;;;;;;0.60;0.60;;;;;;;20.16;48.37;100583.29;106831;1272;25407;-49
2023/11/06 07:18:06;;;;;;;0.60;0.50;;;;;;;20.19;48.28;100586.08;106843;1265;25449;-51
2023/11/06 07:20:33;;;;;;;1.70;0.60;;;;;;;20.23;48.38;100594.33;107171;1260;25227;-51
2023/11/06 07:23:00;;;;;;;3.80;0.80;;;;;;;20.27;48.43;100589.66;107099;1257;25340;-51
2023/11/06 07:25:28;;;;;;;1.50;0.50;;;;;;;20.33;48.53;100593.85;106421;1256;1003612;-51
2023/11/06 07:27:56;;;;;;;1.90;0.80;;;;;;;20.39;48.61;100595.39;107091;1258;22759;-49
2023/11/06 07:30:23;;;;;;;1.10;0.90;;;;;;;20.45;48.61;100602.55;107183;1265;23298;-50
2023/11/06 07:32:50;;;;;;;1.10;0.60;;;;;;;20.50;48.57;100598.48;107094;1255;25292;-50
2023/11/06 07:35:17;;;;;;;0.40;0.40;;;;;;;20.57;48.53;100598.61;107117;1264;25347;-50
2023/11/06 07:37:44;;;;;;;1.20;0.60;;;;;;;20.62;48.42;100603.20;107134;1262;25340;-50
2023/11/06 07:40:13;;;;;;;0.60;0.50;;;;;;;20.67;48.13;100601.67;107038;1257;25513;-49
2023/11/06 07:42:40;;;;;;;0.70;0.50;;;;;;;20.71;47.82;100598.16;106837;1267;25443;-50
2023/11/06 07:45:08;;;;;;;1.10;0.50;;;;;;;20.77;47.85;100597.45;107057;1271;25385;-50
2023/11/06 07:47:36;;;;;;;0.50;0.50;;;;;;;20.82;47.87;100602.87;107042;1267;22531;-50
2023/11/06 07:50:04;;;;;;;1.00;0.40;;;;;;;20.88;48.00;100609.17;106841;1270;25495;-50
2023/11/06 07:52:32;;;;;;;0.70;0.40;;;;;;;20.95;48.05;100613.15;107173;1267;25322;-50
2023/11/06 07:54:59;;;;;;;0.70;0.70;;;;;;;21.02;47.99;100615.85;106976;1267;25389;-51
2023/11/06 07:57:26;;;;;;;0.50;0.50;;;;;;;21.10;47.65;100625.55;107136;1267;23326;-50
2023/11/06 07:59:57;;;;;;;1.10;0.70;;;;;;;21.18;47.39;100631.02;107071;1260;24375;-50
2023/11/06 08:02:24;;;;;;;0.40;0.40;;;;;;;21.26;47.02;100635.28;106853;1275;25515;-51
2023/11/06 08:04:51;;;;;;;0.70;0.40;;;;;;;21.32;46.81;100637.31;106868;1270;25338;-50
2023/11/06 08:07:19;;;;;;;0.40;0.40;;;;;;;21.38;46.39;100650.27;106154;1257;1003645;-50
2023/11/06 08:09:47;;;;;;;0.50;0.50;;;;;;;21.45;46.09;100657.23;106813;1257;25346;-50
2023/11/06 08:12:17;;;;;;;0.80;0.40;;;;;;;21.50;46.18;100663.78;107079;1257;25461;-50
2023/11/06 08:14:44;;;;;;;0.40;0.40;;;;;;;21.55;45.91;100670.99;107055;1256;25401;-51
2023/11/06 08:17:12;;;;;;;0.50;0.50;;;;;;;21.61;45.67;100680.49;107112;1251;25319;-49
2023/11/06 08:19:41;;;;;;;0.40;0.30;;;;;;;21.66;45.57;100677.84;107068;1251;25360;-49
2023/11/06 08:22:09;;;;;;;1.20;0.50;;;;;;;21.69;45.29;100682.90;107090;1257;25481;-50
2023/11/06 08:24:37;;;;;;;0.90;0.50;;;;;;;21.73;45.25;100687.20;107118;1270;25394;-50
2023/11/06 08:27:06;;;;;;;0.90;0.30;;;;;;;21.61;45.50;100686.61;107069;1270;23868;-50
2023/11/06 08:29:33;;;;;;;0.80;0.30;;;;;;;21.58;45.73;100687.39;107112;1264;25322;-50
2023/11/06 08:32:01;;;;;;;2.70;0.70;;;;;;;21.62;45.80;100686.59;107125;1257;25337;-49
2023/11/06 08:34:28;;;;;;;0.90;0.40;;;;;;;21.69;45.57;100688.35;107067;1267;25320;-50
2023/11/06 08:36:55;;;;;;;1.40;0.40;;;;;;;21.91;45.12;100689.16;107048;1258;25322;-50
2023/11/06 08:39:23;;;;;;;1.70;0.40;;;;;;;22.01;44.65;100692.69;106895;1270;25545;-50
2023/11/06 08:41:50;;;;;;;0.50;0.30;;;;;;;22.09;44.43;100694.80;107083;1257;25366;-50
2023/11/06 08:44:17;;;;;;;0.60;0.20;;;;;;;22.16;44.14;100703.15;107046;1267;25452;-50
2023/11/06 08:46:44;;;;;;;0.70;0.50;;;;;;;22.22;43.59;100699.33;107184;1267;23247;-50
2023/11/06 08:49:13;;;;;;;0.50;0.40;;;;;;;22.27;43.14;100703.35;107066;1257;22519;-50
2023/11/06 08:51:47;;;;;;;1.10;0.40;;;;;;;22.34;42.90;100705.18;107050;1270;25395;-50
2023/11/06 08:54:15;;;;;;;0.40;0.40;;;;;;;22.38;42.64;100713.86;107102;1270;22538;-50
2023/11/06 08:56:42;;;;;;;0.50;0.30;;;;;;;22.43;42.50;100713.02;107122;1267;25337;-50
2023/11/06 08:59:09;;;;;;;1.60;0.40;;;;;;;22.46;42.59;100707.80;106909;1267;25401;-50
2023/11/06 09:01:38;;;;;;;1.30;0.50;;;;;;;22.51;42.19;100705.17;106817;1260;25341;-50
2023/11/06 09:04:09;;;;;;;0.90;0.40;;;;;;;22.55;42.07;100711.77;107151;1256;25478;-50
2023/11/06 09:06:40;;;;;;;;;;;;;;;22.59;42.13;100709.77;107102;1257;25346;-50
2023/11/06 09:09:08;;;;;;;1.20;0.50;;;;;;;22.57;42.21;100711.62;106916;1270;25515;-50
2023/11/06 09:11:36;;;;;;;1.00;0.50;;;;;;;22.62;42.35;100713.93;106841;1267;25365;-50
2023/11/06 09:14:03;;;;;;;0.90;0.40;;;;;;;22.64;42.35;100709.34;107078;1260;25388;-51
2023/11/06 09:16:37;;;;;;;0.40;0.30;;;;;;;22.66;42.47;100707.68;107189;1266;26614;-50
2023/11/06 09:19:10;;;;;;;0.80;0.50;;;;;;;22.69;42.32;100706.44;107084;1267;25353;-50
2023/11/06 09:21:37;;;;;;;0.90;0.50;;;;;;;22.73;42.37;100711.24;107076;1254;25378;-50
2023/11/06 09:24:05;;;;;;;1.20;0.40;;;;;;;22.77;42.32;100709.00;107010;1254;25350;-50
2023/11/06 09:26:32;;;;;;;0.40;0.40;;;;;;;22.81;42.25;100713.83;107127;1264;25495;-50
2023/11/06 09:29:04;;;;;;;0.40;0.40;;;;;;;22.86;42.27;100717.33;105535;1267;1003408;-49
2023/11/06 09:31:32;;;;;;;2.60;0.40;;;;;;;22.91;41.84;100716.96;106865;1267;23873;-50
2023/11/06 09:33:59;;;;;;;1.90;0.60;;;;;;;22.95;41.20;100714.52;107105;1267;25377;-50
2023/11/06 09:36:27;;;;;;;0.70;0.50;;;;;;;22.99;41.19;100713.05;107113;1257;25336;-50
2023/11/06 09:38:55;;;;;;;0.90;0.60;;;;;;;23.03;40.78;100714.31;107138;1256;25312;-50
2023/11/06 09:41:22;;;;;;;0.60;0.30;;;;;;;23.07;40.75;100708.34;106783;1267;392335;-50
2023/11/06 09:43:49;;;;;;;0.80;0.30;;;;;;;23.10;40.54;100711.48;106802;1274;25366;-49
2023/11/06 09:46:16;;;;;;;1.30;0.50;;;;;;;23.14;40.80;100711.35;107099;1270;25417;-49
2023/11/06 09:48:43;;;;;;;1.70;0.50;;;;;;;23.19;40.65;100712.23;106807;1260;25347;-49
2023/11/06 09:51:12;;;;;;;1.80;0.60;;;;;;;23.23;40.27;100714.77;106769;1267;22535;-50
2023/11/06 09:53:45;;;;;;;1.70;0.50;;;;;;;23.27;40.11;100720.95;107135;1251;25258;-49
2023/11/06 09:56:12;;;;;;;0.60;0.30;;;;;;;23.31;39.86;100722.27;107084;1267;25374;-50
2023/11/06 09:58:39;;;;;;;1.90;0.50;;;;;;;23.36;39.92;100724.94;107040;1273;25418;-51
2023/11/06 10:01:07;;;;;;;0.40;0.40;;;;;;;23.39;39.50;100728.44;107047;1268;25381;-50
2023/11/06 10:03:36;;;;;;;3.50;0.70;;;;;;;23.43;39.07;100729.73;107102;1254;25223;-50
2023/11/06 10:06:06;;;;;;;1.20;0.40;;;;;;;23.47;38.99;100732.26;106933;1267;22524;-50
2023/11/06 10:08:37;;;;;;;1.60;0.60;;;;;;;23.50;38.86;100738.20;106996;1268;25406;-50
2023/11/06 10:11:07;;;;;;;0.90;0.40;;;;;;;23.54;38.72;100736.30;106823;1266;22519;-52
2023/11/06 10:13:54;;;;;;;3.90;0.70;;;;;;;23.58;38.77;100729.98;106774;1266;25470;-51
2023/11/06 10:16:23;;;;;;;1.80;1.00;;;;;;;23.61;38.69;100730.29;106928;1267;25434;-51
2023/11/06 10:18:51;;;;;;;1.30;0.90;;;;;;;23.64;38.57;100726.70;106864;1270;25337;-52
2023/11/06 10:21:27;;;;;;;0.70;0.60;;;;;;;23.64;38.66;100728.82;106891;1275;25478;-51
2023/11/06 10:24:01;;;;;;;0.60;0.50;;;;;;;23.68;38.85;100730.78;106948;1270;22534;-49
2023/11/06 10:26:32;;;;;;;1.00;0.40;;;;;;;23.72;38.91;100729.41;107036;1267;25440;-50
2023/11/06 10:29:17;;;;;;;0.90;0.50;;;;;;;23.77;38.92;100726.42;107096;1257;25308;-51
2023/11/06 10:31:46;;;;;;;1.60;0.60;;;;;;;23.82;38.71;100725.43;107097;1266;25319;-50
2023/11/06 10:34:27;;;;;;;3.20;0.80;;;;;;;23.86;38.29;100731.53;107097;1266;24215;-50
2023/11/06 10:37:02;;;;;;;1.20;0.70;;;;;;;23.91;38.36;100741.21;107063;1266;25341;-50
2023/11/06 10:39:31;;;;;;;1.70;0.90;;;;;;;23.95;37.80;100744.09;106991;1267;25318;-50
2023/11/06 10:42:05;;;;;;;2.90;0.30;;;;;;;23.99;37.66;100748.02;107079;1267;25287;-51
2023/11/06 10:44:34;;;;;;;1.00;0.60;;;;;;;24.03;37.33;100749.48;107074;1266;22585;-50
2023/11/06 10:47:05;;;;;;;1.30;0.60;;;;;;;24.07;37.06;100751.19;107126;1266;22774;-51
2023/11/06 10:49:39;;;;;;;2.60;0.70;;;;;;;24.10;36.92;100740.65;106871;1267;22544;-50
2023/11/06 10:52:07;;;;;;;1.00;0.70;;;;;;;24.13;36.92;100745.86;106779;1267;25475;-51
2023/11/06 10:54:38;;;;;;;2.60;0.80;;;;;;;24.16;36.71;100753.27;107050;1270;22527;-50
2023/11/06 10:57:07;;;;;;;1.50;0.60;;;;;;;24.19;36.65;100759.72;106864;1270;24214;-50
2023/11/06 10:59:35;;;;;;;2.10;0.50;;;;;;;24.23;36.62;100757.48;106841;1273;25532;-50
2023/11/06 11:02:03;;;;;;;0.90;0.50;;;;;;;24.26;36.37;100752.87;106787;1274;25391;-49
2023/11/06 11:04:30;;;;;;;1.50;0.80;;;;;;;24.29;36.07;100754.77;106847;1264;25375;-50
2023/11/06 11:06:59;;;;;;;0.70;0.60;;;;;;;24.32;36.11;100761.23;107232;1270;25318;-51
2023/11/06 11:09:27;;;;;;;1.60;0.70;;;;;;;24.34;36.03;100754.75;107133;1267;24199;-50
2023/11/06 11:11:54;;;;;;;1.30;0.40;;;;;;;24.36;36.26;100756.89;106099;1267;1002846;-50
2023/11/06 11:14:21;;;;;;;2.30;0.70;;;;;;;24.38;36.40;100756.58;107074;1266;25410;-51
2023/11/06 11:16:53;;;;;;;2.40;0.60;;;;;;;24.40;36.10;100758.16;107084;1267;25332;-52
2023/11/06 11:19:24;;;;;;;1.90;0.70;;;;;;;24.41;36.06;100759.81;106788;1273;24243;-50